Time;durP1;ratioP1;P1;durP2;ratioP2;P2;SDS_P1;SDS_P2;PMS_P1;PMS_P2;Temp;Humidity;BMP_temperature;BMP_pressure;BME280_temperature;BME280_humidity;BME280_pressure;Samples;Min_cycle;Max_cycle;Signal;HPM_P1;HPM_P2
2023/03/19 00:03:02;;;;;;;;;;;20.40;50.50;;;;;;4945846;55;20103;-35
2023/03/19 00:08:03;;;;;;;;;;;20.40;50.40;;;;;;4847170;55;20075;-32
2023/03/19 00:13:04;;;;;;;;;;;20.50;50.50;;;;;;4781439;55;20120;-34
2023/03/19 00:18:05;;;;;;;;;;;20.40;50.40;;;;;;4752017;58;20065;-34
2023/03/19 00:23:06;;;;;;;;;;;20.40;50.40;;;;;;4752061;58;20061;-34
2023/03/19 00:28:06;;;;;;;;;;;20.40;50.40;;;;;;4971200;55;20068;-33
2023/03/19 00:33:07;;;;;;;;;;;20.50;50.40;;;;;;4859493;55;20116;-34
2023/03/19 00:38:08;;;;;;;;;;;20.50;50.40;;;;;;4875821;55;20331;-34
2023/03/19 00:43:09;;;;;;;;;;;20.50;50.40;;;;;;4752190;55;20104;-35
2023/03/19 00:48:10;;;;;;;;;;;20.40;50.40;;;;;;4820548;55;20100;-35
2023/03/19 00:53:11;;;;;;;;;;;20.40;50.30;;;;;;4786418;55;20116;-35
2023/03/19 00:58:11;;;;;;;;;;;20.40;50.30;;;;;;4844582;55;20303;-35
2023/03/19 01:03:12;;;;;;;;;;;20.40;50.30;;;;;;4842486;55;20072;-35
2023/03/19 01:08:13;;;;;;;;;;;20.40;50.30;;;;;;4750705;58;20112;-34
2023/03/19 01:13:14;;;;;;;;;;;20.40;51.00;;;;;;4781772;55;20291;-35
2023/03/19 01:18:14;;;;;;;;;;;20.40;50.30;;;;;;4890320;55;20059;-35
2023/03/19 01:23:15;;;;;;;;;;;20.40;50.30;;;;;;4847875;55;20072;-33
2023/03/19 01:28:16;;;;;;;;;;;20.40;50.30;;;;;;4777451;55;20358;-34
2023/03/19 01:33:19;;;;;;;;;;;20.40;50.20;;;;;;4912974;55;20323;-33
2023/03/19 01:38:20;;;;;;;;;;;20.40;50.20;;;;;;4751881;58;20287;-34
2023/03/19 01:43:22;;;;;;;;;;;20.40;50.20;;;;;;4815912;55;20148;-34
2023/03/19 01:48:46;;;;;;;;;;;20.40;50.20;;;;;;4751410;55;20132;-34
2023/03/19 01:53:48;;;;;;;;;;;20.40;50.20;;;;;;4923047;55;20068;-35
2023/03/19 01:58:52;;;;;;;;;;;20.40;50.20;;;;;;4836797;55;20116;-33
2023/03/19 02:03:53;;;;;;;;;;;20.40;50.20;;;;;;4802081;55;20060;-34
2023/03/19 02:08:54;;;;;;;;;;;20.40;50.20;;;;;;4754711;55;20072;-34
2023/03/19 02:13:54;;;;;;;;;;;20.40;50.20;;;;;;4828841;55;20072;-33
2023/03/19 02:18:55;;;;;;;;;;;20.40;50.20;;;;;;4837426;55;20073;-34
2023/03/19 02:24:02;;;;;;;;;;;20.40;50.20;;;;;;4810809;55;20120;-34
2023/03/19 02:29:03;;;;;;;;;;;20.40;50.10;;;;;;4865908;55;20173;-35
2023/03/19 02:35:04;;;;;;;;;;;20.40;50.20;;;;;;4775132;55;20286;-34
2023/03/19 02:40:09;;;;;;;;;;;20.40;50.10;;;;;;4926112;55;20053;-33
2023/03/19 02:45:10;;;;;;;;;;;20.40;50.10;;;;;;4796798;55;20271;-34
2023/03/19 02:50:11;;;;;;;;;;;20.40;50.10;;;;;;4837823;55;20314;-31
2023/03/19 02:55:11;;;;;;;;;;;20.40;50.10;;;;;;4751230;58;20088;-34
2023/03/19 03:00:13;;;;;;;;;;;20.40;50.10;;;;;;4832960;55;20088;-35
2023/03/19 03:05:13;;;;;;;;;;;20.40;50.00;;;;;;4890334;55;20121;-35
2023/03/19 03:10:14;;;;;;;;;;;20.40;50.00;;;;;;4861816;55;20310;-32
2023/03/19 03:15:15;;;;;;;;;;;20.40;50.50;;;;;;4839083;55;20108;-34
2023/03/19 03:20:16;;;;;;;;;;;20.40;50.00;;;;;;4799128;55;20173;-34
2023/03/19 03:25:17;;;;;;;;;;;20.40;50.00;;;;;;4841110;55;20096;-34
2023/03/19 03:30:18;;;;;;;;;;;20.40;50.00;;;;;;4751610;58;20164;-34
2023/03/19 03:35:21;;;;;;;;;;;20.40;49.90;;;;;;4752223;58;20076;-34
2023/03/19 03:40:21;;;;;;;;;;;20.30;50.50;;;;;;4752141;58;20300;-34
2023/03/19 03:45:22;;;;;;;;;;;20.30;49.70;;;;;;4880630;55;20104;-33
2023/03/19 03:50:23;;;;;;;;;;;20.40;49.90;;;;;;4799231;55;20303;-33
2023/03/19 03:55:23;;;;;;;;;;;20.40;49.80;;;;;;4751422;58;20120;-34
2023/03/19 04:00:25;;;;;;;;;;;20.30;49.70;;;;;;4987121;55;20069;-33
2023/03/19 04:05:26;;;;;;;;;;;20.30;50.00;;;;;;4858926;55;20363;-32
2023/03/19 04:10:27;;;;;;;;;;;20.30;49.70;;;;;;4792806;55;20056;-33
2023/03/19 04:15:27;;;;;;;;;;;20.30;49.70;;;;;;4807874;55;20120;-34
2023/03/19 04:20:28;;;;;;;;;;;20.30;49.80;;;;;;4752077;58;20362;-34
2023/03/19 04:25:28;;;;;;;;;;;20.40;49.80;;;;;;4773096;55;20065;-34
2023/03/19 04:30:29;;;;;;;;;;;20.30;49.80;;;;;;4853593;55;20128;-34
2023/03/19 04:35:30;;;;;;;;;;;20.30;49.70;;;;;;4781332;55;20327;-35
2023/03/19 04:40:31;;;;;;;;;;;20.40;49.80;;;;;;4764441;55;20116;-34
2023/03/19 04:45:31;;;;;;;;;;;20.30;49.70;;;;;;4751646;58;20052;-35
2023/03/19 04:50:33;;;;;;;;;;;20.30;49.70;;;;;;4751876;58;20080;-35
2023/03/19 04:55:34;;;;;;;;;;;20.30;49.70;;;;;;4877952;55;20306;-34
2023/03/19 05:00:34;;;;;;;;;;;20.30;49.70;;;;;;4776049;55;20117;-35
2023/03/19 05:05:35;;;;;;;;;;;20.30;49.60;;;;;;4843202;55;20394;-31
2023/03/19 05:10:36;;;;;;;;;;;20.30;49.70;;;;;;4923388;55;20125;-35
2023/03/19 05:15:37;;;;;;;;;;;20.30;49.60;;;;;;4873341;55;20347;-35
2023/03/19 05:20:38;;;;;;;;;;;20.30;49.50;;;;;;4757601;55;20056;-34
2023/03/19 05:25:39;;;;;;;;;;;20.30;49.60;;;;;;4887228;55;20389;-34
2023/03/19 05:30:40;;;;;;;;;;;20.30;49.50;;;;;;4796132;55;20291;-34
2023/03/19 05:35:40;;;;;;;;;;;20.30;49.50;;;;;;4805015;55;20068;-34
2023/03/19 05:40:41;;;;;;;;;;;20.30;49.50;;;;;;4801088;55;20366;-35
2023/03/19 05:45:42;;;;;;;;;;;20.30;49.40;;;;;;4889425;55;20140;-35
2023/03/19 05:50:43;;;;;;;;;;;20.30;49.40;;;;;;5139620;55;20120;-31
2023/03/19 05:55:43;;;;;;;;;;;20.30;49.50;;;;;;4862348;55;20108;-34
2023/03/19 06:00:44;;;;;;;;;;;20.30;49.50;;;;;;4761090;55;20351;-35
2023/03/19 06:05:47;;;;;;;;;;;20.30;49.40;;;;;;4823360;55;20318;-35
2023/03/19 06:10:48;;;;;;;;;;;20.30;49.40;;;;;;4751753;55;20076;-35
2023/03/19 06:15:49;;;;;;;;;;;20.30;49.40;;;;;;4984079;55;20065;-35
2023/03/19 06:20:49;;;;;;;;;;;20.30;49.40;;;;;;4902787;55;20060;-34
2023/03/19 06:25:50;;;;;;;;;;;20.30;49.40;;;;;;5029725;55;20073;-33
2023/03/19 06:30:52;;;;;;;;;;;20.30;49.30;;;;;;4785552;55;20357;-36
2023/03/19 06:35:53;;;;;;;;;;;20.30;49.30;;;;;;4935300;55;20068;-33
2023/03/19 06:40:54;;;;;;;;;;;20.30;49.30;;;;;;4797500;55;20331;-33
2023/03/19 06:45:55;;;;;;;;;;;20.30;49.30;;;;;;4758172;55;20112;-34
2023/03/19 06:50:55;;;;;;;;;;;20.30;49.70;;;;;;4839846;55;20339;-34
2023/03/19 06:55:56;;;;;;;;;;;20.30;49.30;;;;;;4792511;55;20115;-33
2023/03/19 07:00:56;;;;;;;;;;;20.30;49.30;;;;;;4752028;58;20271;-34
2023/03/19 07:05:57;;;;;;;;;;;20.30;49.30;;;;;;4804840;55;20129;-35
2023/03/19 07:11:05;;;;;;;;;;;20.30;49.30;;;;;;4774575;55;20061;-34
2023/03/19 07:16:06;;;;;;;;;;;20.30;49.30;;;;;;4843862;55;20068;-33
2023/03/19 07:21:06;;;;;;;;;;;20.30;49.30;;;;;;4923183;55;20072;-35
2023/03/19 07:26:07;;;;;;;;;;;20.30;49.90;;;;;;4751780;55;20358;-33
2023/03/19 07:31:08;;;;;;;;;;;20.30;49.30;;;;;;4944128;55;20052;-35
2023/03/19 07:36:08;;;;;;;;;;;20.30;49.20;;;;;;4752177;58;20155;-35
2023/03/19 07:41:09;;;;;;;;;;;20.30;49.20;;;;;;4752075;58;20068;-34
2023/03/19 07:46:10;;;;;;;;;;;20.30;49.20;;;;;;4799241;55;20117;-34
2023/03/19 07:51:11;;;;;;;;;;;20.30;49.20;;;;;;4753207;55;20064;-34
2023/03/19 07:56:11;;;;;;;;;;;20.30;49.30;;;;;;4775381;55;20155;-33
2023/03/19 08:01:12;;;;;;;;;;;20.30;49.20;;;;;;4881881;55;20048;-36
2023/03/19 08:06:13;;;;;;;;;;;20.30;49.30;;;;;;4863063;55;20065;-35
2023/03/19 08:11:14;;;;;;;;;;;20.30;49.20;;;;;;4752060;55;20362;-35
2023/03/19 08:16:14;;;;;;;;;;;20.30;49.30;;;;;;4780002;55;20069;-35
2023/03/19 08:21:15;;;;;;;;;;;20.30;49.30;;;;;;4779305;55;20061;-35
2023/03/19 08:26:15;;;;;;;;;;;20.30;49.40;;;;;;4917393;55;20072;-35
2023/03/19 08:31:16;;;;;;;;;;;20.30;49.40;;;;;;4906895;55;20109;-35
2023/03/19 08:36:17;;;;;;;;;;;20.30;49.40;;;;;;4751988;56;20114;-35
2023/03/19 08:41:17;;;;;;;;;;;20.30;49.50;;;;;;4860452;55;20124;-35
2023/03/19 08:46:18;;;;;;;;;;;20.30;49.40;;;;;;4785803;55;20072;-35
2023/03/19 08:51:19;;;;;;;;;;;20.30;49.50;;;;;;4767653;55;20073;-34
2023/03/19 08:56:20;;;;;;;;;;;20.30;49.50;;;;;;4807040;55;20346;-36
2023/03/19 09:01:21;;;;;;;;;;;20.30;49.50;;;;;;4866715;55;20112;-34
2023/03/19 09:06:21;;;;;;;;;;;20.30;49.50;;;;;;4751575;55;20120;-34
2023/03/19 09:11:22;;;;;;;;;;;20.30;49.50;;;;;;4926414;55;20073;-34
2023/03/19 09:16:24;;;;;;;;;;;20.30;49.50;;;;;;4753633;55;20069;-33
2023/03/19 09:21:25;;;;;;;;;;;20.30;49.50;;;;;;4880933;55;20311;-34
2023/03/19 09:26:26;;;;;;;;;;;20.30;49.60;;;;;;4932426;55;20049;-33
2023/03/19 09:31:26;;;;;;;;;;;20.30;49.70;;;;;;4825330;55;20306;-33
2023/03/19 09:36:27;;;;;;;;;;;20.30;49.60;;;;;;4751566;55;20061;-35
2023/03/19 09:41:34;;;;;;;;;;;20.30;49.70;;;;;;4827028;55;20061;-35
2023/03/19 09:46:45;;;;;;;;;;;20.30;49.70;;;;;;4857818;55;20104;-34
2023/03/19 09:51:50;;;;;;;;;;;20.30;49.70;;;;;;4752096;55;20282;-31
2023/03/19 09:56:51;;;;;;;;;;;20.30;49.70;;;;;;4784310;55;20367;-34
2023/03/19 10:01:57;;;;;;;;;;;20.30;49.70;;;;;;4824532;55;20117;-37
2023/03/19 10:07:07;;;;;;;;;;;20.30;49.70;;;;;;4772350;55;20315;-35
2023/03/19 10:12:26;;;;;;;;;;;20.30;49.70;;;;;;4755637;55;20092;-34
2023/03/19 10:17:32;;;;;;;;;;;20.30;49.70;;;;;;4767089;55;20068;-35
2023/03/19 10:22:45;;;;;;;;;;;20.30;49.70;;;;;;4862656;55;20113;-34
2023/03/19 10:27:47;;;;;;;;;;;20.30;49.70;;;;;;4792052;55;20354;-34
2023/03/19 10:32:52;;;;;;;;;;;20.30;49.70;;;;;;4980921;55;20068;-35
2023/03/19 10:37:54;;;;;;;;;;;20.30;49.70;;;;;;4939985;55;20343;-35
2023/03/19 10:43:03;;;;;;;;;;;20.30;49.70;;;;;;4908810;55;20298;-35
2023/03/19 10:48:04;;;;;;;;;;;20.30;49.70;;;;;;4829544;55;20060;-35
2023/03/19 10:53:07;;;;;;;;;;;20.30;49.70;;;;;;4779964;55;20295;-34
2023/03/19 10:58:16;;;;;;;;;;;20.30;49.70;;;;;;4775224;55;20287;-35
2023/03/19 11:03:51;;;;;;;;;;;20.30;49.70;;;;;;5036573;55;20076;-34
2023/03/19 11:08:57;;;;;;;;;;;20.30;49.80;;;;;;5075712;55;20132;-34
2023/03/19 11:13:58;;;;;;;;;;;20.30;49.80;;;;;;4855685;55;20112;-34
2023/03/19 11:18:58;;;;;;;;;;;20.30;49.80;;;;;;4773346;55;20303;-34
2023/03/19 11:24:02;;;;;;;;;;;20.30;49.80;;;;;;4770939;55;20112;-34
2023/03/19 11:29:03;;;;;;;;;;;20.30;49.80;;;;;;4768724;55;20307;-33
2023/03/19 11:34:19;;;;;;;;;;;20.30;49.90;;;;;;4790393;55;20195;-35
2023/03/19 11:39:27;;;;;;;;;;;20.30;49.90;;;;;;4751452;58;20068;-34
2023/03/19 11:44:42;;;;;;;;;;;20.30;50.00;;;;;;4984844;55;20307;-35
2023/03/19 11:52:41;;;;;;;;;;;20.30;50.00;;;;;;4838840;55;20339;-35
2023/03/19 11:58:09;;;;;;;;;;;20.30;50.00;;;;;;4873827;55;20116;-34
2023/03/19 12:04:36;;;;;;;;;;;20.30;50.10;;;;;;4997765;55;20113;-33
2023/03/19 12:12:14;;;;;;;;;;;20.30;50.20;;;;;;4751726;55;20294;-34
2023/03/19 12:19:52;;;;;;;;;;;20.30;50.20;;;;;;4868304;55;20351;-37
2023/03/19 12:25:01;;;;;;;;;;;20.30;50.30;;;;;;4888024;55;20302;-32
2023/03/19 12:30:24;;;;;;;;;;;20.30;50.30;;;;;;4960448;55;20085;-35
2023/03/19 12:35:28;;;;;;;;;;;20.30;50.40;;;;;;4804903;55;20104;-32
2023/03/19 12:42:00;;;;;;;;;;;20.30;50.50;;;;;;4751620;58;20314;-34
2023/03/19 12:49:38;;;;;;;;;;;20.30;50.50;;;;;;4751238;55;20306;-34
2023/03/19 12:54:42;;;;;;;;;;;20.30;50.50;;;;;;4767540;55;20108;-34
2023/03/19 13:00:06;;;;;;;;;;;20.40;51.20;;;;;;4893628;55;20061;-33
2023/03/19 13:05:25;;;;;;;;;;;20.30;50.50;;;;;;4751227;56;20326;-33
2023/03/19 13:10:28;;;;;;;;;;;20.30;50.60;;;;;;4939364;55;20108;-34
2023/03/19 13:15:44;;;;;;;;;;;20.30;50.60;;;;;;4751425;58;20104;-33
2023/03/19 13:21:46;;;;;;;;;;;20.30;50.60;;;;;;4751106;58;20068;-35
2023/03/19 13:26:48;;;;;;;;;;;20.40;50.70;;;;;;4816280;55;20290;-34
2023/03/19 13:31:49;;;;;;;;;;;20.40;50.80;;;;;;4813458;55;20069;-35
2023/03/19 13:36:58;;;;;;;;;;;20.40;50.80;;;;;;4851896;55;20108;-36
2023/03/19 13:42:09;;;;;;;;;;;20.30;50.70;;;;;;4769014;55;20060;-33
2023/03/19 13:50:42;;;;;;;;;;;20.40;50.80;;;;;;4769540;55;20121;-36
2023/03/19 13:55:45;;;;;;;;;;;20.40;50.80;;;;;;5170886;54;20298;-36
2023/03/19 14:00:55;;;;;;;;;;;20.30;50.80;;;;;;4842538;55;20299;-35
2023/03/19 14:05:56;;;;;;;;;;;20.40;50.90;;;;;;4876906;55;20088;-35
2023/03/19 14:10:58;;;;;;;;;;;20.40;50.90;;;;;;4751789;55;20160;-32
2023/03/19 14:16:05;;;;;;;;;;;20.40;50.90;;;;;;4751296;58;20157;-39
2023/03/19 14:21:08;;;;;;;;;;;20.40;50.90;;;;;;4776456;55;20303;-34
2023/03/19 14:26:11;;;;;;;;;;;20.40;51.00;;;;;;4751143;55;20056;-35
2023/03/19 14:31:31;;;;;;;;;;;20.40;50.90;;;;;;4751209;55;20065;-35
2023/03/19 14:36:35;;;;;;;;;;;20.40;50.90;;;;;;4880434;55;20339;-37
2023/03/19 14:41:41;;;;;;;;;;;20.40;50.90;;;;;;4899649;55;20068;-36
2023/03/19 14:49:19;;;;;;;;;;;20.40;51.00;;;;;;4891812;55;20069;-36
2023/03/19 14:54:40;;;;;;;;;;;20.40;51.00;;;;;;4835696;55;20311;-35
2023/03/19 14:59:41;;;;;;;;;;;20.40;51.00;;;;;;4916421;55;20291;-36
2023/03/19 15:04:44;;;;;;;;;;;20.40;51.10;;;;;;4751369;58;20160;-34
2023/03/19 15:09:45;;;;;;;;;;;20.40;51.10;;;;;;4858907;55;20308;-35
2023/03/19 15:15:04;;;;;;;;;;;20.40;51.10;;;;;;4843425;55;20148;-35
2023/03/19 15:20:18;;;;;;;;;;;20.40;51.10;;;;;;4876159;55;20068;-33
2023/03/19 15:25:19;;;;;;;;;;;20.40;51.10;;;;;;4821359;55;20104;-34
2023/03/19 15:30:26;;;;;;;;;;;20.40;51.10;;;;;;4773512;55;20048;-35
2023/03/19 15:35:34;;;;;;;;;;;20.40;51.20;;;;;;5036361;55;20323;-35
2023/03/19 15:40:36;;;;;;;;;;;20.40;51.20;;;;;;4799716;55;20327;-34
2023/03/19 15:45:37;;;;;;;;;;;20.40;51.20;;;;;;4824678;55;20287;-35
2023/03/19 15:50:40;;;;;;;;;;;20.40;51.20;;;;;;4752244;55;20089;-35
2023/03/19 15:55:41;;;;;;;;;;;20.40;51.20;;;;;;4801009;55;20312;-35
2023/03/19 16:00:42;;;;;;;;;;;20.40;51.20;;;;;;4849362;55;20072;-34
2023/03/19 16:05:42;;;;;;;;;;;20.40;51.20;;;;;;4837097;55;20065;-34
2023/03/19 16:10:44;;;;;;;;;;;20.40;51.20;;;;;;4776547;55;20311;-33
2023/03/19 16:15:46;;;;;;;;;;;20.40;51.10;;;;;;4892367;55;20400;-35
2023/03/19 16:20:57;;;;;;;;;;;20.40;51.20;;;;;;4807342;55;20068;-34
2023/03/19 16:26:02;;;;;;;;;;;20.40;51.10;;;;;;4794495;55;20343;-33
2023/03/19 16:31:03;;;;;;;;;;;20.40;51.20;;;;;;4847202;55;20067;-34
2023/03/19 16:36:04;;;;;;;;;;;20.40;51.20;;;;;;4751766;55;20065;-35
2023/03/19 16:41:38;;;;;;;;;;;20.40;51.20;;;;;;4757844;55;20109;-35
2023/03/19 16:46:38;;;;;;;;;;;20.40;51.10;;;;;;4751400;55;20116;-33
2023/03/19 16:51:39;;;;;;;;;;;20.40;51.20;;;;;;4761379;55;20064;-34
2023/03/19 16:56:40;;;;;;;;;;;20.40;51.20;;;;;;4801872;55;20060;-35
2023/03/19 17:01:40;;;;;;;;;;;20.40;51.20;;;;;;4756322;55;20359;-34
2023/03/19 17:06:41;;;;;;;;;;;20.40;51.20;;;;;;4751433;58;20315;-35
2023/03/19 17:11:42;;;;;;;;;;;20.40;51.20;;;;;;4874372;55;20068;-33
2023/03/19 17:16:49;;;;;;;;;;;20.40;51.30;;;;;;4752187;55;20290;-34
2023/03/19 17:21:52;;;;;;;;;;;20.40;51.20;;;;;;4933104;55;20336;-35
2023/03/19 17:26:53;;;;;;;;;;;20.40;51.20;;;;;;4793870;55;20401;-34
2023/03/19 17:31:54;;;;;;;;;;;20.40;51.20;;;;;;4771274;55;20132;-34
2023/03/19 17:36:56;;;;;;;;;;;20.40;51.20;;;;;;4899877;55;20077;-32
2023/03/19 17:41:57;;;;;;;;;;;20.40;51.30;;;;;;4931220;55;20164;-34
2023/03/19 17:46:58;;;;;;;;;;;20.40;51.20;;;;;;5064947;55;20111;-34
2023/03/19 17:51:59;;;;;;;;;;;20.40;51.20;;;;;;4758707;55;20056;-35
2023/03/19 17:57:00;;;;;;;;;;;20.40;51.20;;;;;;4947259;54;20270;-35
2023/03/19 18:02:00;;;;;;;;;;;20.40;51.20;;;;;;4786301;55;20064;-36
2023/03/19 18:07:01;;;;;;;;;;;20.40;51.30;;;;;;4751269;58;20056;-34
2023/03/19 18:12:02;;;;;;;;;;;20.40;51.30;;;;;;4783613;55;20319;-32
2023/03/19 18:17:03;;;;;;;;;;;20.40;51.20;;;;;;4764516;55;20303;-33
2023/03/19 18:22:14;;;;;;;;;;;20.40;51.20;;;;;;4829304;55;20111;-35
2023/03/19 18:27:15;;;;;;;;;;;20.40;51.30;;;;;;4751185;58;20074;-34
2023/03/19 18:32:24;;;;;;;;;;;20.40;51.20;;;;;;4826724;55;20300;-34
2023/03/19 18:37:25;;;;;;;;;;;20.40;51.30;;;;;;4811345;55;20072;-32
2023/03/19 18:42:26;;;;;;;;;;;20.40;51.30;;;;;;4826460;55;20351;-34
2023/03/19 18:47:27;;;;;;;;;;;20.40;51.30;;;;;;4915483;55;20320;-34
2023/03/19 18:52:28;;;;;;;;;;;20.40;51.30;;;;;;4957420;55;20064;-34
2023/03/19 18:57:29;;;;;;;;;;;20.40;51.30;;;;;;4838289;55;20056;-34
2023/03/19 19:02:31;;;;;;;;;;;20.40;51.50;;;;;;5031396;55;20294;-35
2023/03/19 19:07:31;;;;;;;;;;;20.40;51.30;;;;;;4751296;58;20298;-35
2023/03/19 19:12:32;;;;;;;;;;;20.40;51.30;;;;;;4831933;55;20068;-33
2023/03/19 19:17:33;;;;;;;;;;;20.40;51.30;;;;;;4811368;55;20282;-33
2023/03/19 19:22:34;;;;;;;;;;;20.40;51.50;;;;;;5067387;55;20128;-34
2023/03/19 19:27:35;;;;;;;;;;;20.40;51.30;;;;;;4875344;55;20084;-35
2023/03/19 19:32:35;;;;;;;;;;;20.40;51.40;;;;;;4936054;55;20067;-34
2023/03/19 19:37:36;;;;;;;;;;;20.40;51.40;;;;;;5084741;55;20069;-34
2023/03/19 19:42:37;;;;;;;;;;;20.40;51.40;;;;;;4866969;55;20290;-34
2023/03/19 19:47:37;;;;;;;;;;;20.40;51.30;;;;;;4751336;55;20060;-33
2023/03/19 19:52:38;;;;;;;;;;;20.40;51.40;;;;;;4822340;55;20125;-34
2023/03/19 19:57:39;;;;;;;;;;;20.30;51.30;;;;;;4895165;55;20061;-35
2023/03/19 20:02:40;;;;;;;;;;;20.40;51.30;;;;;;4752046;58;20303;-35
2023/03/19 20:07:40;;;;;;;;;;;20.40;51.30;;;;;;4751046;58;20120;-34
2023/03/19 20:12:42;;;;;;;;;;;20.40;52.00;;;;;;4801344;55;20303;-34
2023/03/19 20:17:43;;;;;;;;;;;20.40;51.40;;;;;;4820993;55;20113;-34
2023/03/19 20:22:44;;;;;;;;;;;20.40;51.50;;;;;;4854851;55;20072;-36
2023/03/19 20:27:48;;;;;;;;;;;20.40;51.40;;;;;;4842166;55;20295;-35
2023/03/19 20:32:48;;;;;;;;;;;20.40;51.50;;;;;;4751628;58;20137;-34
2023/03/19 20:37:53;;;;;;;;;;;20.40;51.50;;;;;;4788558;55;20287;-35
2023/03/19 20:42:53;;;;;;;;;;;20.40;51.40;;;;;;4751735;58;20160;-33
2023/03/19 20:47:54;;;;;;;;;;;20.40;51.40;;;;;;4751175;58;20069;-33
2023/03/19 20:52:59;;;;;;;;;;;20.40;51.50;;;;;;4751830;58;20072;-33
2023/03/19 20:58:02;;;;;;;;;;;20.40;51.50;;;;;;4802377;55;20326;-36
2023/03/19 21:03:03;;;;;;;;;;;20.40;51.40;;;;;;4819441;55;20291;-35
2023/03/19 21:08:09;;;;;;;;;;;20.40;51.50;;;;;;4844933;55;20108;-35
2023/03/19 21:13:14;;;;;;;;;;;20.40;51.50;;;;;;4849192;55;20120;-35
2023/03/19 21:18:17;;;;;;;;;;;20.40;51.50;;;;;;4989520;55;20073;-34
2023/03/19 21:23:36;;;;;;;;;;;20.40;51.50;;;;;;4870620;55;20119;-35
2023/03/19 21:28:37;;;;;;;;;;;20.40;51.50;;;;;;4800790;55;20069;-35
2023/03/19 21:33:38;;;;;;;;;;;20.40;51.50;;;;;;4797703;55;20064;-35
2023/03/19 21:38:39;;;;;;;;;;;20.40;52.10;;;;;;4787850;55;20339;-33
2023/03/19 21:43:44;;;;;;;;;;;20.40;51.50;;;;;;4792685;55;20053;-35
2023/03/19 21:48:45;;;;;;;;;;;20.40;51.50;;;;;;4773598;55;20310;-35
2023/03/19 21:53:46;;;;;;;;;;;20.40;51.50;;;;;;4867324;55;20076;-35
2023/03/19 21:58:47;;;;;;;;;;;20.40;51.60;;;;;;4797307;55;20299;-33
2023/03/19 22:03:48;;;;;;;;;;;20.40;51.50;;;;;;4838589;55;20063;-34
2023/03/19 22:08:49;;;;;;;;;;;20.40;52.10;;;;;;4946009;55;20064;-35
2023/03/19 22:13:51;;;;;;;;;;;20.40;51.50;;;;;;4786470;55;20283;-35
2023/03/19 22:18:52;;;;;;;;;;;20.40;51.50;;;;;;5040600;55;20319;-35
2023/03/19 22:23:52;;;;;;;;;;;20.40;51.50;;;;;;5024932;55;20067;-33
2023/03/19 22:28:54;;;;;;;;;;;20.40;51.50;;;;;;4963002;55;20076;-32
2023/03/19 22:33:54;;;;;;;;;;;20.40;51.50;;;;;;5018490;55;20294;-35
2023/03/19 22:38:55;;;;;;;;;;;20.40;51.50;;;;;;4924116;55;20056;-32
2023/03/19 22:43:56;;;;;;;;;;;20.40;51.50;;;;;;4822128;55;20100;-34
2023/03/19 22:48:57;;;;;;;;;;;20.40;51.50;;;;;;4920677;55;20112;-35
2023/03/19 22:53:58;;;;;;;;;;;20.40;51.60;;;;;;4903520;55;20065;-34
2023/03/19 22:58:58;;;;;;;;;;;20.40;51.60;;;;;;4853819;55;20069;-34
2023/03/19 23:04:13;;;;;;;;;;;20.40;51.60;;;;;;4751871;58;20114;-35
2023/03/19 23:09:15;;;;;;;;;;;20.40;51.60;;;;;;5040096;55;20069;-34
2023/03/19 23:14:15;;;;;;;;;;;20.40;51.60;;;;;;4885190;55;20061;-34
2023/03/19 23:19:24;;;;;;;;;;;20.40;51.60;;;;;;4922087;55;20303;-33
2023/03/19 23:24:26;;;;;;;;;;;20.40;51.60;;;;;;4859371;55;20350;-34
2023/03/19 23:29:28;;;;;;;;;;;20.40;51.70;;;;;;4761743;55;20299;-34
2023/03/19 23:34:30;;;;;;;;;;;20.40;51.60;;;;;;4760891;55;20124;-34
2023/03/19 23:39:30;;;;;;;;;;;20.40;51.70;;;;;;5074178;55;20366;-35
2023/03/19 23:44:31;;;;;;;;;;;20.40;51.60;;;;;;4881796;55;20056;-34
2023/03/19 23:49:32;;;;;;;;;;;20.40;51.60;;;;;;4804488;55;20068;-33
2023/03/19 23:54:35;;;;;;;;;;;20.40;51.60;;;;;;5238610;54;20048;-32
2023/03/19 23:59:37;;;;;;;;;;;20.40;51.60;;;;;;4926619;55;20331;-33
